Arkansaw, Wisconsin
Current Conditions -  °F | °C
As of 2:35 PM on Sunday 21 Dec 2014 (Local Time) from KLUM Reporting Station
Light Rain Light Rain  
Wind Chill: 28°   Ceiling: 500
Heat Index: 35°   Visibility: 1mi
Dew Point: 35°   Wind: 8mph
Humidity: 99%   Direction: 130°SE
Pressure: 29.82"   Gusts: NA
Location:  44.63°N, 92.03°W
Report Text: KLUM 212035Z AUTO 13007KT 1SM -RA OVC005 02/02 A2982 RMK AO2 T00160015
Loading
Personal Weather Stations






























Interactive Weather Map New forecast layout! Learn more

10-Day Weather Forecast

Advertisements
Track Severe Weather on mobile